Time;durP1;ratioP1;P1;durP2;ratioP2;P2;SDS_P1;SDS_P2;PMS_P1;PMS_P2;Temp;Humidity;BMP_temperature;BMP_pressure;BME280_temperature;BME280_humidity;BME280_pressure;Samples;Min_cycle;Max_cycle;Signal;HPM_P1;HPM_P2
2022/05/18 00:02:12;;;;;;;4.38;1.75;;;23.90;39.40;;;;;;6284912;27;80496;-66
2022/05/18 00:05:12;;;;;;;2.40;1.65;;;23.90;39.40;;;;;;6285152;27;80407;-67
2022/05/18 00:08:13;;;;;;;4.88;2.00;;;23.90;39.40;;;;;;6285347;27;80375;-67
2022/05/18 00:11:14;;;;;;;3.28;1.67;;;23.90;39.40;;;;;;6282264;27;80317;-67
2022/05/18 00:14:14;;;;;;;2.65;2.00;;;23.90;39.30;;;;;;6284219;27;80330;-66
2022/05/18 00:17:16;;;;;;;2.30;1.75;;;23.90;39.30;;;;;;6283502;27;80330;-66
2022/05/18 00:20:18;;;;;;;4.70;1.83;;;23.90;39.30;;;;;;6284671;27;80363;-66
2022/05/18 00:23:18;;;;;;;2.88;1.55;;;23.90;39.30;;;;;;6284346;27;80984;-66
2022/05/18 00:26:19;;;;;;;3.40;1.70;;;23.90;39.30;;;;;;6282883;27;81643;-66
2022/05/18 00:29:19;;;;;;;1.65;1.50;;;23.90;39.20;;;;;;6284237;27;80246;-67
2022/05/18 00:32:20;;;;;;;2.13;1.70;;;23.90;39.20;;;;;;6284784;27;80163;-67
2022/05/18 00:35:20;;;;;;;3.85;2.05;;;23.80;39.10;;;;;;6284350;27;80335;-67
2022/05/18 00:38:21;;;;;;;4.63;1.63;;;23.90;39.10;;;;;;6282886;27;80742;-67
2022/05/18 00:41:23;;;;;;;8.70;2.05;;;23.90;39.00;;;;;;6284327;27;80533;-66
2022/05/18 00:44:23;;;;;;;3.25;1.52;;;23.80;39.00;;;;;;6284766;27;80646;-66
2022/05/18 00:47:24;;;;;;;2.35;1.77;;;23.90;39.00;;;;;;6284487;27;80602;-67
2022/05/18 00:50:24;;;;;;;4.18;1.63;;;23.90;39.00;;;;;;6283979;27;80619;-67
2022/05/18 00:53:25;;;;;;;2.33;1.48;;;23.80;39.00;;;;;;6282771;27;80417;-68
2022/05/18 00:56:25;;;;;;;2.63;1.48;;;23.90;38.90;;;;;;6283769;27;80954;-67
2022/05/18 00:59:26;;;;;;;2.20;1.77;;;23.80;38.80;;;;;;6283882;27;80834;-67
2022/05/18 01:02:26;;;;;;;2.90;1.35;;;23.90;38.80;;;;;;6283344;27;81800;-67
2022/05/18 01:05:27;;;;;;;2.17;1.60;;;23.90;38.80;;;;;;6283403;27;87286;-67
2022/05/18 01:08:27;;;;;;;2.42;1.50;;;23.90;38.70;;;;;;6277856;27;81655;-67
2022/05/18 01:11:28;;;;;;;3.88;1.80;;;23.80;38.80;;;;;;6283392;27;82790;-67
2022/05/18 01:14:29;;;;;;;3.42;1.83;;;23.80;38.70;;;;;;6283340;27;80333;-66
2022/05/18 01:17:29;;;;;;;3.25;1.98;;;23.80;38.70;;;;;;6283323;27;82081;-66
2022/05/18 01:20:30;;;;;;;2.05;1.60;;;23.80;38.70;;;;;;6279748;27;81079;-66
2022/05/18 01:23:30;;;;;;;2.05;1.60;;;23.80;38.60;;;;;;6283133;27;80505;-66
2022/05/18 01:26:31;;;;;;;6.82;1.90;;;23.80;38.60;;;;;;6283413;27;80938;-67
2022/05/18 01:29:31;;;;;;;3.53;1.50;;;23.80;38.60;;;;;;6282710;27;80426;-67
2022/05/18 01:32:32;;;;;;;5.68;1.73;;;23.80;38.60;;;;;;6280709;27;82112;-66
2022/05/18 01:35:32;;;;;;;3.13;1.67;;;23.80;38.60;;;;;;6280497;27;80107;-66
2022/05/18 01:38:33;;;;;;;4.28;1.83;;;23.80;38.50;;;;;;6283728;27;80528;-67
2022/05/18 01:41:33;;;;;;;2.83;1.40;;;23.80;38.50;;;;;;6283241;27;80704;-67
2022/05/18 01:44:34;;;;;;;5.20;1.40;;;23.80;38.50;;;;;;6283240;27;80408;-66
2022/05/18 01:47:34;;;;;;;5.10;1.60;;;23.70;38.40;;;;;;6281521;27;80353;-66
2022/05/18 01:50:35;;;;;;;3.60;1.25;;;23.70;38.40;;;;;;6279595;27;80521;-66
2022/05/18 01:53:35;;;;;;;2.15;1.35;;;23.70;38.30;;;;;;6282542;27;81068;-66
2022/05/18 01:56:36;;;;;;;4.97;1.60;;;23.70;38.30;;;;;;6282855;27;80472;-66
2022/05/18 01:59:36;;;;;;;3.75;1.80;;;23.70;38.20;;;;;;6282977;27;80320;-66
2022/05/18 02:02:37;;;;;;;4.63;1.73;;;23.70;38.30;;;;;;6280914;27;80176;-65
2022/05/18 02:05:38;;;;;;;1.83;1.40;;;23.70;38.30;;;;;;6283613;27;81092;-66
2022/05/18 02:08:40;;;;;;;4.05;1.88;;;23.70;38.20;;;;;;6283393;27;80762;-66
2022/05/18 02:11:41;;;;;;;1.42;1.27;;;23.70;38.10;;;;;;6282927;27;80560;-66
2022/05/18 02:14:41;;;;;;;2.88;1.63;;;23.70;38.20;;;;;;6282642;27;80402;-66
2022/05/18 02:17:43;;;;;;;4.40;2.10;;;23.70;38.00;;;;;;6280702;27;81414;-65
2022/05/18 02:20:44;;;;;;;1.83;1.40;;;23.70;38.10;;;;;;6281217;27;80383;-65
2022/05/18 02:23:45;;;;;;;3.40;1.63;;;23.70;38.10;;;;;;6282279;27;80401;-65
2022/05/18 02:26:45;;;;;;;2.80;1.35;;;23.70;38.00;;;;;;6280899;27;80621;-66
2022/05/18 02:29:46;;;;;;;3.70;1.55;;;23.70;38.00;;;;;;6278596;27;80449;-66
2022/05/18 02:32:46;;;;;;;2.22;1.40;;;23.70;38.20;;;;;;6282537;27;80217;-66
2022/05/18 02:35:47;;;;;;;4.63;1.50;;;23.70;38.10;;;;;;6282531;27;81455;-65
2022/05/18 02:38:47;;;;;;;1.80;1.35;;;23.70;38.10;;;;;;6279106;27;80923;-66
2022/05/18 02:41:48;;;;;;;2.03;1.60;;;23.60;38.10;;;;;;6284645;27;81445;-66
2022/05/18 02:44:48;;;;;;;6.50;1.90;;;23.60;38.10;;;;;;6287048;27;80432;-66
2022/05/18 02:47:50;;;;;;;4.35;1.50;;;23.70;38.20;;;;;;6286696;27;80874;-66
2022/05/18 02:50:51;;;;;;;2.42;1.65;;;23.60;38.20;;;;;;6286532;27;80694;-66
2022/05/18 02:53:51;;;;;;;7.03;1.50;;;23.60;38.20;;;;;;6282484;27;80787;-66
2022/05/18 02:56:52;;;;;;;1.20;1.10;;;23.60;38.20;;;;;;6286222;27;81278;-66
2022/05/18 02:59:53;;;;;;;3.67;1.42;;;23.60;38.30;;;;;;6286329;27;81452;-66
2022/05/18 03:02:53;;;;;;;1.98;1.38;;;23.60;38.20;;;;;;6286537;27;80792;-66
2022/05/18 03:05:54;;;;;;;3.03;1.45;;;23.60;38.40;;;;;;6286393;27;80304;-66
2022/05/18 03:08:54;;;;;;;4.47;1.88;;;23.60;38.40;;;;;;6281777;27;80596;-66
2022/05/18 03:11:55;;;;;;;3.30;1.70;;;23.60;38.40;;;;;;6285975;27;80503;-67
2022/05/18 03:14:55;;;;;;;2.88;1.80;;;23.60;38.50;;;;;;6285725;27;81111;-66
2022/05/18 03:17:56;;;;;;;3.70;1.42;;;23.60;38.50;;;;;;6285935;27;80856;-67
2022/05/18 03:24:16;;;;;;;5.40;1.80;;;23.60;38.50;;;;;;6283899;27;80448;-66
2022/05/18 03:27:16;;;;;;;2.10;1.40;;;23.60;38.50;;;;;;6281489;27;80696;-66
2022/05/18 03:30:16;;;;;;;1.73;1.48;;;23.60;38.50;;;;;;6285475;27;80271;-66
2022/05/18 03:33:17;;;;;;;5.15;1.48;;;23.60;38.50;;;;;;6285631;27;80441;-66
2022/05/18 03:36:18;;;;;;;2.25;1.58;;;23.60;38.50;;;;;;6283528;27;80375;-66
2022/05/18 03:39:18;;;;;;;4.15;2.00;;;23.60;38.50;;;;;;6285537;27;80250;-66
2022/05/18 03:42:19;;;;;;;2.97;1.80;;;23.60;38.50;;;;;;6284871;27;81615;-66
2022/05/18 03:45:19;;;;;;;4.35;2.10;;;23.60;38.50;;;;;;6281273;27;80303;-68
2022/05/18 03:48:20;;;;;;;6.00;2.05;;;23.50;38.40;;;;;;6285504;27;81594;-69
2022/05/18 03:51:20;;;;;;;2.78;1.70;;;23.50;38.80;;;;;;6285030;27;81284;-68
2022/05/18 03:54:21;;;;;;;3.97;2.10;;;23.50;38.90;;;;;;6284703;27;80299;-67
2022/05/18 03:57:22;;;;;;;4.38;1.98;;;23.50;38.90;;;;;;6282924;27;80322;-67
2022/05/18 04:00:23;;;;;;;9.00;2.10;;;23.60;39.00;;;;;;6285202;27;80281;-67
2022/05/18 04:03:23;;;;;;;2.45;1.65;;;23.60;39.00;;;;;;6285170;27;80499;-68
2022/05/18 04:06:24;;;;;;;5.30;2.72;;;23.60;39.00;;;;;;6284563;27;81527;-71
2022/05/18 04:09:24;;;;;;;6.28;2.20;;;23.60;39.30;;;;;;6284596;27;81624;-70
2022/05/18 04:12:25;;;;;;;7.15;2.38;;;23.60;39.40;;;;;;6283665;27;80985;-69
2022/05/18 04:15:27;;;;;;;4.80;2.45;;;23.60;39.20;;;;;;6283947;27;80493;-70
2022/05/18 04:18:27;;;;;;;5.65;1.80;;;23.60;39.40;;;;;;6285083;27;81365;-69
2022/05/18 04:21:28;;;;;;;8.02;2.15;;;23.60;39.60;;;;;;6279910;27;81083;-67
2022/05/18 04:24:28;;;;;;;11.00;3.20;;;23.60;39.70;;;;;;6285165;27;80336;-68
2022/05/18 04:27:29;;;;;;;7.00;2.60;;;23.60;39.70;;;;;;6284665;27;80355;-69
2022/05/18 04:30:29;;;;;;;7.60;2.70;;;23.70;39.80;;;;;;6284009;27;80429;-67
2022/05/18 04:33:30;;;;;;;8.02;2.72;;;23.70;39.60;;;;;;6284978;27;80322;-70
2022/05/18 04:36:31;;;;;;;11.15;2.90;;;23.60;39.60;;;;;;6281024;27;81087;-69
2022/05/18 04:39:31;;;;;;;8.48;2.80;;;23.70;39.60;;;;;;6284769;27;80426;-69
2022/05/18 04:42:33;;;;;;;8.32;3.15;;;23.70;39.60;;;;;;6284752;27;82135;-69
2022/05/18 04:45:33;;;;;;;11.90;2.63;;;23.70;39.60;;;;;;6283585;27;81237;-68
2022/05/18 04:48:34;;;;;;;8.35;2.55;;;23.70;39.70;;;;;;6284110;27;80385;-69
2022/05/18 04:51:35;;;;;;;9.75;2.55;;;23.70;39.70;;;;;;6276522;27;80516;-69
2022/05/18 04:54:36;;;;;;;11.65;2.75;;;23.70;39.70;;;;;;6283820;27;80236;-70
2022/05/18 04:57:36;;;;;;;10.13;2.75;;;23.70;39.60;;;;;;6282500;27;81636;-64
2022/05/18 05:00:37;;;;;;;5.22;2.33;;;23.70;39.50;;;;;;6271186;27;81536;-66
2022/05/18 05:03:38;;;;;;;7.00;2.33;;;23.70;39.40;;;;;;6282956;27;80424;-69
2022/05/18 05:06:38;;;;;;;4.03;1.90;;;23.70;39.50;;;;;;6284012;27;80641;-69
2022/05/18 05:09:39;;;;;;;9.38;2.78;;;23.70;38.90;;;;;;6284027;27;80891;-68
2022/05/18 05:12:39;;;;;;;6.93;2.17;;;23.60;38.10;;;;;;6283610;27;80061;-68
2022/05/18 05:15:40;;;;;;;5.10;1.88;;;23.50;36.60;;;;;;6282627;27;80434;-67
2022/05/18 05:18:40;;;;;;;3.05;1.90;;;23.50;34.90;;;;;;6283214;27;80793;-66
2022/05/18 05:21:44;;;;;;;6.47;2.10;;;23.40;34.90;;;;;;6283477;27;80717;-66
2022/05/18 05:24:44;;;;;;;6.88;2.20;;;23.30;34.10;;;;;;6283191;27;80360;-67
2022/05/18 05:27:45;;;;;;;7.18;2.10;;;23.30;33.50;;;;;;6281757;27;81929;-67
2022/05/18 05:30:46;;;;;;;8.00;2.63;;;23.20;32.80;;;;;;6283259;27;81111;-67
2022/05/18 05:33:46;;;;;;;3.15;1.92;;;23.20;32.50;;;;;;6283555;27;80756;-67
2022/05/18 05:36:47;;;;;;;2.42;1.63;;;23.10;32.10;;;;;;6282794;27;81702;-67
2022/05/18 05:39:47;;;;;;;3.50;1.90;;;23.00;32.00;;;;;;6283724;27;81049;-67
2022/05/18 05:42:48;;;;;;;3.35;1.90;;;23.00;32.20;;;;;;6283402;27;80513;-67
2022/05/18 05:45:48;;;;;;;5.72;2.35;;;23.00;32.10;;;;;;6283325;27;80457;-67
2022/05/18 05:48:49;;;;;;;5.25;2.00;;;22.90;32.20;;;;;;6282953;27;80325;-67
2022/05/18 05:51:49;;;;;;;10.50;2.08;;;22.80;32.40;;;;;;6282937;27;80357;-67
2022/05/18 05:54:50;;;;;;;5.55;2.00;;;22.70;32.60;;;;;;6282587;27;81296;-67
2022/05/18 05:57:50;;;;;;;9.32;2.53;;;22.70;32.50;;;;;;6282844;27;80550;-66
2022/05/18 06:00:51;;;;;;;7.20;2.25;;;22.50;32.40;;;;;;6282409;27;81679;-66
2022/05/18 06:03:51;;;;;;;4.22;1.90;;;22.30;32.20;;;;;;6282935;27;80350;-67
2022/05/18 06:06:52;;;;;;;11.20;2.28;;;22.30;32.70;;;;;;6282816;27;79991;-66
2022/05/18 06:09:52;;;;;;;3.80;2.05;;;22.40;32.60;;;;;;6281458;27;80476;-67
2022/05/18 06:12:53;;;;;;;5.85;2.25;;;22.40;32.70;;;;;;6276590;27;81496;-66
2022/05/18 06:15:53;;;;;;;5.97;2.33;;;22.50;32.70;;;;;;6284297;27;80385;-66
2022/05/18 06:18:54;;;;;;;6.00;2.35;;;22.40;32.60;;;;;;6285649;27;80688;-66
2022/05/18 06:21:54;;;;;;;6.55;1.80;;;22.30;32.60;;;;;;6286406;27;81560;-66
2022/05/18 06:24:55;;;;;;;7.88;2.47;;;22.20;32.50;;;;;;6286799;27;80439;-66
2022/05/18 06:27:55;;;;;;;5.85;2.65;;;22.20;32.50;;;;;;6286568;27;81537;-67
2022/05/18 06:30:55;;;;;;;4.20;1.55;;;22.10;32.70;;;;;;6285974;27;81450;-67
2022/05/18 06:33:56;;;;;;;12.18;2.00;;;22.20;32.80;;;;;;6286176;27;80556;-67
2022/05/18 06:36:56;;;;;;;9.13;2.15;;;22.30;33.10;;;;;;6286131;27;80244;-67
2022/05/18 06:39:57;;;;;;;4.53;2.20;;;22.30;33.00;;;;;;6286359;27;85695;-66
2022/05/18 06:42:57;;;;;;;10.43;1.98;;;22.30;33.30;;;;;;6285133;27;80259;-67
2022/05/18 06:45:58;;;;;;;5.53;2.28;;;22.40;33.20;;;;;;6284151;27;81015;-66
2022/05/18 06:48:58;;;;;;;8.80;2.92;;;22.40;33.30;;;;;;6284160;27;80554;-66
2022/05/18 06:51:59;;;;;;;4.35;1.90;;;22.40;32.70;;;;;;6286426;27;80252;-67
2022/05/18 06:54:59;;;;;;;11.52;2.58;;;22.40;32.80;;;;;;6284920;27;80580;-67
2022/05/18 06:58:00;;;;;;;4.75;1.52;;;22.30;32.80;;;;;;6284452;27;81535;-66
2022/05/18 07:01:01;;;;;;;7.18;2.50;;;22.40;32.90;;;;;;6285399;27;80288;-67
2022/05/18 07:04:01;;;;;;;9.02;2.47;;;22.30;32.80;;;;;;6277540;27;80548;-67
2022/05/18 07:07:02;;;;;;;6.18;2.38;;;22.20;32.70;;;;;;6285565;27;87583;-67
2022/05/18 07:10:02;;;;;;;4.78;1.98;;;22.20;32.70;;;;;;6283944;27;80372;-67
2022/05/18 07:13:04;;;;;;;5.95;2.10;;;22.10;32.90;;;;;;6286226;27;80493;-66
2022/05/18 07:16:05;;;;;;;11.43;2.20;;;22.20;33.00;;;;;;6284785;27;80631;-66
2022/05/18 07:19:05;;;;;;;10.77;2.05;;;22.20;32.60;;;;;;6285710;27;81025;-67
2022/05/18 07:22:06;;;;;;;4.13;1.70;;;22.30;32.40;;;;;;6285086;27;80632;-66
2022/05/18 07:25:06;;;;;;;3.70;2.00;;;22.30;32.40;;;;;;6285016;27;81366;-67
2022/05/18 07:28:07;;;;;;;3.40;2.03;;;22.30;32.50;;;;;;6283302;27;84945;-67
2022/05/18 07:31:08;;;;;;;6.03;1.60;;;22.40;32.50;;;;;;6285448;27;80648;-67
2022/05/18 07:34:08;;;;;;;3.38;1.52;;;22.30;31.80;;;;;;6285714;27;81808;-67
2022/05/18 07:37:09;;;;;;;6.95;2.40;;;22.30;31.80;;;;;;6285523;27;80425;-67
2022/05/18 07:40:09;;;;;;;3.28;1.92;;;22.30;31.30;;;;;;6285568;27;80297;-66
2022/05/18 07:43:10;;;;;;;6.32;1.80;;;22.30;31.30;;;;;;6285475;27;80190;-66
2022/05/18 07:46:10;;;;;;;5.30;2.25;;;22.30;31.50;;;;;;6284936;27;80428;-66
2022/05/18 07:49:11;;;;;;;9.55;2.60;;;22.40;31.60;;;;;;6285527;27;80662;-67
2022/05/18 07:52:11;;;;;;;7.68;2.80;;;22.40;31.80;;;;;;6284808;27;81660;-67
2022/05/18 07:55:12;;;;;;;5.57;2.17;;;22.40;31.30;;;;;;6284645;27;80124;-67
2022/05/18 07:58:12;;;;;;;9.40;2.25;;;22.40;31.40;;;;;;6283921;27;80410;-66
2022/05/18 08:01:13;;;;;;;7.53;2.30;;;22.40;31.40;;;;;;6285301;27;80964;-66
2022/05/18 08:04:14;;;;;;;3.88;2.50;;;22.40;31.30;;;;;;6280737;27;80922;-67
2022/05/18 08:07:14;;;;;;;7.90;2.92;;;22.20;31.50;;;;;;6284545;27;80401;-67
2022/05/18 08:16:53;;;;;;;7.25;2.85;;;22.30;31.20;;;;;;6280907;27;81088;-67
2022/05/18 08:19:54;;;;;;;12.60;3.42;;;22.30;31.10;;;;;;6284680;27;80178;-67
2022/05/18 08:22:55;;;;;;;6.75;2.67;;;22.20;31.30;;;;;;6284434;27;80750;-66
2022/05/18 08:25:56;;;;;;;10.02;2.90;;;22.20;30.90;;;;;;6284180;27;80629;-67
2022/05/18 08:28:56;;;;;;;7.10;2.65;;;22.20;31.30;;;;;;6284506;27;80349;-67
2022/05/18 08:31:57;;;;;;;6.70;2.20;;;22.20;31.20;;;;;;6284225;27;81058;-67
2022/05/18 08:34:58;;;;;;;19.75;2.75;;;22.30;31.90;;;;;;6284510;27;80521;-67
2022/05/18 08:37:58;;;;;;;10.95;2.78;;;22.30;31.40;;;;;;6283521;27;80575;-67
2022/05/18 08:40:59;;;;;;;6.07;2.30;;;22.10;32.10;;;;;;6273940;27;80445;-66
2022/05/18 08:43:59;;;;;;;8.85;2.75;;;21.90;31.40;;;;;;6284129;27;80429;-66
2022/05/18 08:47:00;;;;;;;5.78;2.55;;;21.50;31.80;;;;;;6283876;27;80651;-67
2022/05/18 08:50:00;;;;;;;5.22;2.40;;;21.70;31.90;;;;;;6283986;27;81022;-66
2022/05/18 08:53:02;;;;;;;6.43;2.80;;;21.90;31.90;;;;;;6283934;27;81431;-67
2022/05/18 08:56:03;;;;;;;7.13;2.60;;;22.00;32.40;;;;;;6283895;27;80578;-66
2022/05/18 08:59:05;;;;;;;4.05;2.30;;;22.10;32.10;;;;;;6282532;27;82078;-66
2022/05/18 09:02:05;;;;;;;5.95;2.33;;;22.20;32.40;;;;;;6281797;27;83363;-66
2022/05/18 09:05:06;;;;;;;10.52;2.70;;;22.00;31.60;;;;;;6279278;27;81594;-66
2022/05/18 09:08:07;;;;;;;5.88;2.30;;;21.90;32.10;;;;;;6283455;27;80483;-67
2022/05/18 09:11:07;;;;;;;8.20;2.90;;;22.00;32.30;;;;;;6283900;27;81281;-67
2022/05/18 09:14:08;;;;;;;5.47;2.60;;;22.10;31.90;;;;;;6283824;27;80516;-67
2022/05/18 09:17:08;;;;;;;11.98;3.33;;;22.20;32.20;;;;;;6283818;27;81082;-65
2022/05/18 09:20:13;;;;;;;17.75;3.95;;;22.30;31.90;;;;;;6283347;27;80473;-66
2022/05/18 09:23:13;;;;;;;9.68;3.15;;;22.20;32.10;;;;;;6283071;27;81056;-67
2022/05/18 09:26:14;;;;;;;5.55;2.45;;;22.30;32.10;;;;;;6283270;27;81610;-67
2022/05/18 09:29:14;;;;;;;6.50;2.50;;;22.30;32.00;;;;;;6283431;27;80229;-67
2022/05/18 09:32:15;;;;;;;3.17;1.75;;;22.40;31.40;;;;;;6282833;27;81715;-67
2022/05/18 09:35:15;;;;;;;10.45;2.72;;;22.30;31.30;;;;;;6277284;27;80547;-67
2022/05/18 09:38:16;;;;;;;4.30;1.92;;;22.40;31.40;;;;;;6281055;27;80698;-67
2022/05/18 09:41:16;;;;;;;4.40;2.00;;;22.40;31.90;;;;;;6282769;27;80401;-67
2022/05/18 09:44:17;;;;;;;13.18;2.83;;;22.40;31.60;;;;;;6283226;27;86528;-67
2022/05/18 09:47:17;;;;;;;10.57;2.42;;;22.40;31.10;;;;;;6282889;27;80346;-67
2022/05/18 09:50:18;;;;;;;12.05;2.97;;;22.40;30.90;;;;;;6282658;27;81287;-67
2022/05/18 09:53:19;;;;;;;10.60;2.08;;;22.40;30.80;;;;;;6282885;27;80423;-66
2022/05/18 09:56:19;;;;;;;8.60;2.47;;;22.40;30.60;;;;;;6283017;27;80370;-67
2022/05/18 09:59:20;;;;;;;8.55;1.98;;;22.40;30.60;;;;;;6278143;27;80410;-67
2022/05/18 10:08:58;;;;;;;6.00;2.17;;;22.50;30.90;;;;;;6280067;27;80328;-67
2022/05/18 10:11:59;;;;;;;5.80;2.22;;;22.40;31.00;;;;;;6282467;27;80647;-66
2022/05/18 10:14:59;;;;;;;14.18;2.13;;;22.50;31.10;;;;;;6281786;27;80633;-66
2022/05/18 10:18:00;;;;;;;4.75;1.80;;;22.50;31.50;;;;;;6282264;27;80417;-66
2022/05/18 10:21:00;;;;;;;11.30;2.40;;;22.50;30.80;;;;;;6281818;27;80460;-66
2022/05/18 10:24:01;;;;;;;3.20;1.98;;;22.50;30.90;;;;;;6280687;27;80633;-67
2022/05/18 10:27:02;;;;;;;8.43;2.08;;;22.40;30.50;;;;;;6282120;27;80714;-67
2022/05/18 10:30:02;;;;;;;2.83;1.60;;;22.50;30.80;;;;;;6282825;27;80982;-67
2022/05/18 10:33:03;;;;;;;7.75;1.83;;;22.50;31.00;;;;;;6278025;27;80529;-67
2022/05/18 10:36:04;;;;;;;2.75;1.50;;;22.50;30.30;;;;;;6282455;27;80124;-67
2022/05/18 10:39:04;;;;;;;7.75;1.88;;;22.50;30.20;;;;;;6282259;27;80363;-66
2022/05/18 10:42:05;;;;;;;2.97;1.60;;;22.40;29.10;;;;;;6282190;27;81184;-66
2022/05/18 10:45:06;;;;;;;3.88;1.25;;;22.40;29.30;;;;;;6272817;27;81040;-67
2022/05/18 10:48:06;;;;;;;3.42;1.50;;;22.40;29.40;;;;;;6281717;27;81510;-67
2022/05/18 10:51:07;;;;;;;3.90;1.65;;;22.40;29.30;;;;;;6281889;27;80161;-67
2022/05/18 10:54:07;;;;;;;3.00;1.58;;;22.20;28.90;;;;;;6279701;27;81572;-67
2022/05/18 10:57:08;;;;;;;3.42;1.65;;;22.10;29.00;;;;;;6281980;27;80370;-67
2022/05/18 11:00:08;;;;;;;7.05;1.35;;;22.10;29.00;;;;;;6282030;27;80951;-67
2022/05/18 11:03:09;;;;;;;4.47;1.65;;;22.10;29.40;;;;;;6281628;27;82956;-67
2022/05/18 11:06:09;;;;;;;2.63;1.27;;;22.20;29.60;;;;;;6283318;27;80856;-67
2022/05/18 11:09:10;;;;;;;5.07;1.70;;;22.30;29.90;;;;;;6286392;27;80423;-67
2022/05/18 11:12:10;;;;;;;3.58;1.85;;;22.30;30.00;;;;;;6285669;27;80475;-67
2022/05/18 11:15:12;;;;;;;3.78;1.67;;;22.30;29.40;;;;;;6285150;27;80394;-67
2022/05/18 11:18:12;;;;;;;2.88;1.58;;;22.20;29.30;;;;;;6285764;27;81760;-67
2022/05/18 11:21:13;;;;;;;7.75;1.83;;;22.30;29.80;;;;;;6285829;27;80798;-67
2022/05/18 11:24:14;;;;;;;5.20;1.60;;;22.50;30.10;;;;;;6285853;27;80889;-66
2022/05/18 11:27:15;;;;;;;4.95;1.52;;;22.50;29.70;;;;;;6285511;27;80392;-67
2022/05/18 11:30:15;;;;;;;4.07;1.52;;;22.50;29.20;;;;;;6285738;27;80675;-69
2022/05/18 11:33:16;;;;;;;6.78;1.10;;;22.50;29.50;;;;;;6285607;27;80023;-67
2022/05/18 11:36:16;;;;;;;1.58;1.30;;;22.50;29.50;;;;;;6285116;27;81521;-67
2022/05/18 11:39:18;;;;;;;5.50;1.30;;;22.40;28.70;;;;;;6280981;27;80653;-68
2022/05/18 11:42:18;;;;;;;4.70;2.10;;;22.50;28.70;;;;;;6285541;27;80415;-69
2022/05/18 11:45:19;;;;;;;6.32;1.40;;;22.50;28.90;;;;;;6282793;27;80650;-66
2022/05/18 11:48:19;;;;;;;5.47;1.27;;;22.50;29.30;;;;;;6271792;27;80932;-67
2022/05/18 11:51:20;;;;;;;3.85;1.52;;;22.50;29.00;;;;;;6271212;27;80873;-67
2022/05/18 11:54:20;;;;;;;5.90;1.80;;;22.60;29.20;;;;;;6278426;27;80933;-68
2022/05/18 11:57:21;;;;;;;3.20;1.17;;;22.70;29.30;;;;;;6285766;27;81956;-69
2022/05/18 12:00:44;;;;;;;4.65;1.30;;;22.60;28.90;;;;;;6285784;27;80147;-67
2022/05/18 12:03:42;;;;;;;2.67;1.23;;;22.50;28.40;;;;;;6279324;27;80003;-67
2022/05/18 12:06:42;;;;;;;4.63;1.00;;;22.50;28.40;;;;;;6279953;27;80497;-68
2022/05/18 12:09:43;;;;;;;4.60;1.50;;;22.60;28.70;;;;;;6284771;27;81773;-68
2022/05/18 12:12:44;;;;;;;2.78;1.13;;;22.60;28.30;;;;;;6285149;27;80926;-67
2022/05/18 12:15:45;;;;;;;2.72;1.13;;;22.70;28.90;;;;;;6281989;27;80224;-66
2022/05/18 12:18:45;;;;;;;6.38;1.20;;;22.80;29.20;;;;;;6278685;27;80965;-67
2022/05/18 12:21:46;;;;;;;12.45;1.50;;;22.70;28.70;;;;;;6281554;27;80528;-68
2022/05/18 12:24:46;;;;;;;1.63;1.25;;;22.80;28.90;;;;;;6283354;27;80097;-68
2022/05/18 12:27:47;;;;;;;1.75;1.10;;;22.80;29.10;;;;;;6285208;27;82025;-68
2022/05/18 12:30:47;;;;;;;2.13;1.27;;;22.80;29.40;;;;;;6277268;27;80389;-66
2022/05/18 12:33:48;;;;;;;11.15;1.55;;;22.90;29.60;;;;;;6285311;27;81222;-67
2022/05/18 12:36:48;;;;;;;5.93;1.85;;;22.90;29.20;;;;;;6285245;27;81105;-68
2022/05/18 12:39:49;;;;;;;6.85;1.20;;;22.80;29.30;;;;;;6284222;27;80169;-67
2022/05/18 12:42:50;;;;;;;9.18;1.55;;;22.70;28.70;;;;;;6276445;27;80844;-68
2022/05/18 12:45:50;;;;;;;6.45;1.73;;;22.70;28.10;;;;;;6280790;27;81036;-67
2022/05/18 12:52:11;;;;;;;3.35;1.40;;;22.50;28.20;;;;;;6283551;27;81670;-67
2022/05/18 12:55:11;;;;;;;3.35;1.50;;;22.70;28.60;;;;;;6277858;27;80404;-67
2022/05/18 12:58:12;;;;;;;4.72;1.60;;;22.80;28.90;;;;;;6275231;27;80867;-66
2022/05/18 13:01:12;;;;;;;3.75;1.73;;;22.70;28.50;;;;;;6272113;27;80271;-66
2022/05/18 13:04:13;;;;;;;4.03;1.20;;;22.70;28.40;;;;;;6282344;27;80995;-66
2022/05/18 13:07:13;;;;;;;3.42;1.10;;;22.70;28.70;;;;;;6282566;27;79994;-66
2022/05/18 13:10:14;;;;;;;8.20;1.75;;;22.80;28.80;;;;;;6278731;27;81376;-67
2022/05/18 13:13:14;;;;;;;2.28;1.33;;;22.60;28.30;;;;;;6265195;27;80567;-66
2022/05/18 13:16:15;;;;;;;4.50;1.33;;;22.50;28.60;;;;;;6278924;27;80894;-66
2022/05/18 13:19:15;;;;;;;1.27;1.10;;;22.60;28.30;;;;;;6283504;27;80191;-66
2022/05/18 13:22:16;;;;;;;3.90;1.58;;;22.70;28.60;;;;;;6276974;27;81113;-66
2022/05/18 13:25:16;;;;;;;4.63;1.05;;;22.80;28.20;;;;;;6282425;27;79989;-66
2022/05/18 13:28:17;;;;;;;2.63;1.42;;;22.90;28.90;;;;;;6282758;27;80453;-66
2022/05/18 13:31:17;;;;;;;4.65;1.20;;;22.80;28.10;;;;;;6283265;27;80639;-67
2022/05/18 13:34:18;;;;;;;7.30;1.67;;;22.80;28.40;;;;;;6283429;27;80538;-66
2022/05/18 13:37:18;;;;;;;3.13;1.58;;;22.90;29.30;;;;;;6283200;27;80272;-67
2022/05/18 13:40:19;;;;;;;2.92;1.33;;;23.00;28.90;;;;;;6283390;27;80569;-67
2022/05/18 13:43:19;;;;;;;3.90;1.38;;;23.00;28.70;;;;;;6272504;27;80894;-67
2022/05/18 13:46:20;;;;;;;5.55;1.20;;;23.00;29.00;;;;;;6281813;27;80320;-67
2022/05/18 13:49:20;;;;;;;4.72;1.48;;;23.00;28.90;;;;;;6282871;27;80230;-67
2022/05/18 13:52:21;;;;;;;5.20;1.52;;;23.00;28.80;;;;;;6282426;27;81251;-67
2022/05/18 13:55:21;;;;;;;1.33;1.10;;;23.00;29.20;;;;;;6282599;27;80045;-67
2022/05/18 13:58:23;;;;;;;3.92;1.30;;;22.90;28.60;;;;;;6282957;27;80146;-66
2022/05/18 14:01:23;;;;;;;2.83;1.33;;;22.90;28.60;;;;;;6282969;27;80397;-67
2022/05/18 14:04:25;;;;;;;3.75;1.20;;;22.80;28.40;;;;;;6277347;27;80104;-67
2022/05/18 14:07:25;;;;;;;1.85;1.38;;;22.80;28.60;;;;;;6282494;27;80973;-66
2022/05/18 14:10:28;;;;;;;5.32;1.27;;;22.80;28.70;;;;;;6282009;27;80571;-67
2022/05/18 14:13:28;;;;;;;3.72;1.48;;;22.80;28.80;;;;;;6281309;27;81575;-67
2022/05/18 14:16:29;;;;;;;3.05;1.05;;;22.80;28.90;;;;;;6281933;27;80139;-67
2022/05/18 14:19:29;;;;;;;4.47;1.20;;;22.80;28.80;;;;;;6276737;27;80450;-66
2022/05/18 14:22:30;;;;;;;5.75;1.42;;;22.80;28.90;;;;;;6282106;27;80470;-67
2022/05/18 14:25:31;;;;;;;8.38;1.38;;;22.80;29.20;;;;;;6282620;27;80942;-66
2022/05/18 14:28:31;;;;;;;3.22;1.00;;;22.80;28.80;;;;;;6282179;27;80206;-67
2022/05/18 14:31:32;;;;;;;4.70;1.40;;;22.90;29.10;;;;;;6281087;27;85695;-67
2022/05/18 14:34:32;;;;;;;3.58;1.17;;;22.80;29.00;;;;;;6273954;27;80700;-67
2022/05/18 14:37:33;;;;;;;4.38;1.35;;;22.80;29.10;;;;;;6284661;27;80757;-67
2022/05/18 14:40:33;;;;;;;3.45;1.15;;;22.80;28.90;;;;;;6249926;27;81537;-67
2022/05/18 14:43:34;;;;;;;6.65;1.65;;;22.80;28.30;;;;;;6286013;27;80859;-68
2022/05/18 14:46:35;;;;;;;2.00;1.33;;;22.90;28.80;;;;;;6284721;27;82054;-67
2022/05/18 14:49:36;;;;;;;4.72;1.08;;;22.90;28.80;;;;;;6286655;27;80354;-67
2022/05/18 14:52:36;;;;;;;2.97;1.45;;;22.80;28.70;;;;;;6286119;27;81758;-67
2022/05/18 14:55:37;;;;;;;8.43;1.35;;;22.80;28.20;;;;;;6286306;27;80445;-69
2022/05/18 14:58:37;;;;;;;8.27;1.73;;;22.80;28.10;;;;;;6286586;27;80841;-67
2022/05/18 15:01:38;;;;;;;3.33;1.00;;;22.80;28.00;;;;;;6286267;27;80388;-67
2022/05/18 15:04:38;;;;;;;8.63;1.75;;;22.80;28.70;;;;;;6284078;27;80904;-68
2022/05/18 15:07:39;;;;;;;3.67;1.35;;;22.90;28.90;;;;;;6286427;27;80600;-69
2022/05/18 15:10:39;;;;;;;6.55;1.75;;;22.90;28.90;;;;;;6286480;27;80403;-67
2022/05/18 15:13:40;;;;;;;1.45;1.05;;;22.90;28.90;;;;;;6286613;27;80408;-67
2022/05/18 15:16:40;;;;;;;3.15;1.58;;;23.00;29.00;;;;;;6284869;27;82543;-67
2022/05/18 15:19:41;;;;;;;6.90;1.50;;;23.00;29.50;;;;;;6282764;27;80539;-68
2022/05/18 15:22:41;;;;;;;7.47;1.52;;;23.00;29.70;;;;;;6284445;27;81352;-67
2022/05/18 15:25:42;;;;;;;7.03;1.42;;;22.90;29.30;;;;;;6285381;27;87251;-68
2022/05/18 15:28:42;;;;;;;4.28;1.30;;;23.00;29.80;;;;;;6286597;27;80287;-69
2022/05/18 15:31:44;;;;;;;2.10;1.13;;;23.00;30.50;;;;;;6285827;27;80522;-70
2022/05/18 15:34:45;;;;;;;2.25;1.33;;;23.10;30.60;;;;;;6273053;27;80425;-69
2022/05/18 15:37:46;;;;;;;4.53;1.00;;;23.10;30.80;;;;;;6285034;27;80480;-68
2022/05/18 15:40:47;;;;;;;3.05;1.48;;;23.10;30.90;;;;;;6285425;27;81555;-68
2022/05/18 15:43:47;;;;;;;1.98;1.27;;;23.20;30.80;;;;;;6284866;27;80887;-69
2022/05/18 15:46:48;;;;;;;3.00;1.35;;;23.20;30.40;;;;;;6283159;27;80375;-70
2022/05/18 15:49:49;;;;;;;3.13;1.10;;;23.20;30.70;;;;;;6270686;27;80783;-71
2022/05/18 15:52:49;;;;;;;2.47;1.08;;;23.20;30.80;;;;;;6266044;27;81576;-71
2022/05/18 15:55:50;;;;;;;2.65;1.33;;;23.20;30.90;;;;;;6274111;27;82099;-69
2022/05/18 15:58:54;;;;;;;4.75;1.60;;;23.30;31.10;;;;;;6279805;27;81114;-70